Time;durP1;ratioP1;P1;durP2;ratioP2;P2;SDS_P1;SDS_P2;PMS_P1;PMS_P2;Temp;Humidity;BMP_temperature;BMP_pressure;BME280_temperature;BME280_humidity;BME280_pressure;Samples;Min_cycle;Max_cycle;Signal;HPM_P1;HPM_P2
2024/03/29 00:05:33;;;;;;;3.30;1.50;;;7.50;99.90;;;;;;12597744;28;20070;-80
2024/03/29 00:11:34;;;;;;;2.85;1.38;;;7.50;99.90;;;;;;12585550;28;20044;-81
2024/03/29 00:17:35;;;;;;;2.58;1.33;;;7.50;99.90;;;;;;12604164;28;20419;-82
2024/03/29 00:23:36;;;;;;;1.63;1.45;;;7.50;99.90;;;;;;12597763;28;20056;-77
2024/03/29 00:29:37;;;;;;;2.70;1.50;;;7.50;99.90;;;;;;12631752;28;20051;-78
2024/03/29 00:35:38;;;;;;;2.28;1.30;;;7.50;99.90;;;;;;12638401;28;20052;-79
2024/03/29 00:41:38;;;;;;;3.50;1.50;;;7.60;99.90;;;;;;12626106;28;20080;-78
2024/03/29 00:47:39;;;;;;;3.80;1.48;;;7.50;99.90;;;;;;12621993;28;20051;-78
2024/03/29 00:53:40;;;;;;;2.55;1.40;;;7.50;99.90;;;;;;12615431;28;20045;-77
2024/03/29 00:59:43;;;;;;;3.67;1.40;;;7.50;99.90;;;;;;12634003;28;20051;-77
2024/03/29 01:05:44;;;;;;;1.77;1.40;;;7.40;99.90;;;;;;12633800;28;20106;-75
2024/03/29 01:11:44;;;;;;;1.50;1.30;;;7.30;99.90;;;;;;12611778;28;20316;-77
2024/03/29 01:17:45;;;;;;;2.88;1.42;;;7.40;99.90;;;;;;12602828;28;20166;-77
2024/03/29 01:23:46;;;;;;;3.33;1.40;;;7.40;99.90;;;;;;12604721;28;20112;-79
2024/03/29 01:29:47;;;;;;;2.95;1.30;;;7.20;99.90;;;;;;12607363;28;20496;-78
2024/03/29 01:35:48;;;;;;;1.75;1.30;;;7.30;99.90;;;;;;12595347;28;20048;-79
2024/03/29 01:41:49;;;;;;;1.45;1.20;;;7.30;99.90;;;;;;12583835;28;20045;-79
2024/03/29 01:47:50;;;;;;;1.98;1.30;;;7.30;99.90;;;;;;12597647;28;20044;-79
2024/03/29 01:53:54;;;;;;;4.28;1.35;;;7.30;99.90;;;;;;12611395;28;20052;-79
2024/03/29 01:59:55;;;;;;;2.77;1.30;;;7.40;99.90;;;;;;12596044;28;20495;-79
2024/03/29 02:05:57;;;;;;;3.97;1.27;;;7.50;99.90;;;;;;12601154;28;20290;-79
2024/03/29 02:11:58;;;;;;;1.42;1.20;;;7.40;99.90;;;;;;12594300;28;20052;-79
2024/03/29 02:17:59;;;;;;;4.65;1.40;;;7.50;99.90;;;;;;12601175;28;20044;-79
2024/03/29 02:24:10;;;;;;;2.75;1.40;;;7.70;99.90;;;;;;12592305;28;20072;-78
2024/03/29 02:30:15;;;;;;;2.05;1.30;;;7.60;99.90;;;;;;12598282;28;20405;-79
2024/03/29 02:36:16;;;;;;;4.53;1.33;;;7.70;99.90;;;;;;12623757;28;20055;-79
2024/03/29 02:42:17;;;;;;;2.60;1.48;;;7.80;99.90;;;;;;12639964;28;20064;-79
2024/03/29 02:48:18;;;;;;;3.55;1.45;;;7.80;99.90;;;;;;12628371;28;20055;-81
2024/03/29 02:54:19;;;;;;;2.85;1.75;;;7.90;99.90;;;;;;12649451;28;20048;-80
2024/03/29 03:00:20;;;;;;;4.18;1.45;;;7.90;99.90;;;;;;12635514;28;20057;-81
2024/03/29 03:06:20;;;;;;;3.20;1.30;;;8.00;99.90;;;;;;12611776;28;20044;-80
2024/03/29 03:12:21;;;;;;;2.65;1.50;;;8.10;99.90;;;;;;12618855;28;20044;-80
2024/03/29 03:18:23;;;;;;;3.55;1.60;;;8.10;99.90;;;;;;12655993;28;20484;-80
2024/03/29 03:24:24;;;;;;;3.25;1.60;;;7.80;99.90;;;;;;12631381;28;20048;-79
2024/03/29 03:30:25;;;;;;;2.00;1.13;;;7.60;99.90;;;;;;12634688;28;20049;-80
2024/03/29 03:36:26;;;;;;;4.88;1.45;;;7.40;99.90;;;;;;12657482;28;20040;-79
2024/03/29 03:42:27;;;;;;;2.10;1.40;;;7.30;99.90;;;;;;12635444;28;20085;-84
2024/03/29 03:48:29;;;;;;;4.68;1.67;;;7.30;99.90;;;;;;12621312;28;20036;-82
2024/03/29 03:54:30;;;;;;;3.45;1.40;;;7.40;99.90;;;;;;12616499;28;20044;-81
2024/03/29 04:00:31;;;;;;;3.75;1.45;;;7.40;99.90;;;;;;12639672;28;20036;-79
2024/03/29 04:06:32;;;;;;;2.97;1.27;;;7.40;99.90;;;;;;12645746;28;20107;-80
2024/03/29 04:12:33;;;;;;;2.78;1.58;;;7.50;99.90;;;;;;12634137;28;20054;-79
2024/03/29 04:18:34;;;;;;;1.80;1.15;;;7.60;99.90;;;;;;12662503;28;20048;-79
2024/03/29 04:24:35;;;;;;;2.42;1.30;;;7.70;99.90;;;;;;12659627;28;20040;-79
2024/03/29 04:30:36;;;;;;;2.38;1.20;;;7.80;99.90;;;;;;12636270;28;20060;-84
2024/03/29 04:36:37;;;;;;;1.70;1.13;;;7.90;99.90;;;;;;12624260;28;20461;-80
2024/03/29 04:42:37;;;;;;;2.72;1.15;;;8.10;99.90;;;;;;12636559;28;20080;-80
2024/03/29 04:48:41;;;;;;;2.05;1.20;;;8.20;99.90;;;;;;12632225;28;20048;-79
2024/03/29 04:54:43;;;;;;;2.42;1.35;;;8.10;99.90;;;;;;12619723;28;20156;-78
2024/03/29 05:00:44;;;;;;;2.50;1.13;;;8.00;99.90;;;;;;12613848;28;20056;-77
2024/03/29 05:06:45;;;;;;;1.00;0.90;;;7.80;99.90;;;;;;12617324;28;20047;-79
2024/03/29 05:12:46;;;;;;;2.35;1.05;;;7.60;99.90;;;;;;12630810;28;20097;-78
2024/03/29 05:18:47;;;;;;;1.80;0.90;;;7.50;99.90;;;;;;12585945;28;20058;-78
2024/03/29 05:24:53;;;;;;;1.52;0.98;;;7.30;99.90;;;;;;12592503;28;20056;-79
2024/03/29 05:30:54;;;;;;;2.75;0.85;;;7.20;99.90;;;;;;12604210;28;20096;-78
2024/03/29 05:36:54;;;;;;;4.40;1.20;;;7.10;99.90;;;;;;12587725;28;20102;-78
2024/03/29 05:42:55;;;;;;;4.32;0.85;;;7.20;99.90;;;;;;12591104;28;20052;-78
2024/03/29 05:48:56;;;;;;;3.33;0.80;;;7.10;99.90;;;;;;12599276;28;20048;-82
2024/03/29 05:55:02;;;;;;;4.00;0.90;;;7.10;99.90;;;;;;12593426;28;20495;-78
2024/03/29 06:01:03;;;;;;;2.22;1.00;;;7.10;99.90;;;;;;12625714;28;20056;-78
2024/03/29 06:07:05;;;;;;;3.65;1.00;;;7.10;99.90;;;;;;12659211;28;20072;-81
2024/03/29 06:13:17;;;;;;;1.73;0.90;;;7.10;99.90;;;;;;12660449;28;20064;-81
2024/03/29 06:19:18;;;;;;;1.83;1.00;;;7.10;99.90;;;;;;12631605;28;20048;-78
2024/03/29 06:25:19;;;;;;;2.83;1.35;;;7.10;99.90;;;;;;12609795;28;20056;-81
2024/03/29 06:31:20;;;;;;;2.78;1.30;;;7.10;99.90;;;;;;12593442;28;20053;-80
2024/03/29 06:37:22;;;;;;;3.72;1.20;;;7.10;99.90;;;;;;12588276;28;20060;-81
2024/03/29 06:43:22;;;;;;;2.95;1.70;;;7.10;99.90;;;;;;12574954;28;20417;-80
2024/03/29 06:49:23;;;;;;;3.55;1.40;;;7.10;99.90;;;;;;12602948;28;20040;-80
2024/03/29 06:55:24;;;;;;;3.00;1.23;;;7.10;99.90;;;;;;12596731;28;20122;-81
2024/03/29 07:01:25;;;;;;;3.20;1.20;;;7.10;99.90;;;;;;12608481;28;20062;-79
2024/03/29 07:07:26;;;;;;;1.67;1.20;;;7.10;99.90;;;;;;12600351;28;20476;-79
2024/03/29 07:13:31;;;;;;;3.92;1.60;;;7.10;99.90;;;;;;12572193;28;20394;-80
2024/03/29 07:19:32;;;;;;;3.38;1.42;;;7.10;99.90;;;;;;12589323;28;20517;-80
2024/03/29 07:25:32;;;;;;;4.15;1.30;;;7.10;99.90;;;;;;12578394;28;20083;-77
2024/03/29 07:31:34;;;;;;;2.90;1.60;;;7.20;99.90;;;;;;12587107;28;20095;-76
2024/03/29 07:37:35;;;;;;;2.78;1.00;;;7.30;99.90;;;;;;12603235;28;20060;-76
2024/03/29 07:44:03;;;;;;;2.35;1.33;;;7.40;99.90;;;;;;12613878;28;20044;-78
2024/03/29 07:50:06;;;;;;;3.72;1.65;;;7.40;99.90;;;;;;12610750;28;20484;-77
2024/03/29 07:56:07;;;;;;;2.78;1.40;;;7.50;99.90;;;;;;12596282;28;20495;-77
2024/03/29 08:02:07;;;;;;;1.65;1.13;;;7.50;99.90;;;;;;12604973;28;20091;-79
2024/03/29 08:08:08;;;;;;;3.72;1.70;;;7.70;99.90;;;;;;12602108;28;20066;-79
2024/03/29 08:14:09;;;;;;;1.73;1.27;;;8.00;99.90;;;;;;12597687;28;20041;-77
2024/03/29 08:20:10;;;;;;;3.03;1.50;;;8.10;99.90;;;;;;12602159;28;20062;-78
2024/03/29 08:26:11;;;;;;;2.13;1.83;;;8.30;99.90;;;;;;12624216;28;20105;-82
2024/03/29 08:32:12;;;;;;;1.92;1.65;;;8.50;99.90;;;;;;12616774;28;20053;-82
2024/03/29 08:38:13;;;;;;;2.60;1.40;;;8.50;99.90;;;;;;12613106;28;20052;-77
2024/03/29 08:44:14;;;;;;;2.78;1.60;;;8.50;99.90;;;;;;12599122;28;20511;-78
2024/03/29 08:50:15;;;;;;;2.60;1.80;;;8.40;99.90;;;;;;12609898;28;20059;-78
2024/03/29 08:56:16;;;;;;;3.53;2.65;;;8.40;99.90;;;;;;12602155;28;20056;-78
2024/03/29 09:02:18;;;;;;;2.90;1.88;;;8.50;99.90;;;;;;12616261;28;20522;-77
2024/03/29 09:08:19;;;;;;;2.50;1.30;;;8.50;99.90;;;;;;12620317;28;20097;-77
2024/03/29 09:14:21;;;;;;;3.35;2.13;;;8.70;99.90;;;;;;12603224;28;20059;-78
2024/03/29 09:20:22;;;;;;;2.63;2.15;;;8.70;99.90;;;;;;12611347;28;20052;-79
2024/03/29 09:26:22;;;;;;;2.80;2.00;;;8.90;99.90;;;;;;12599538;28;20061;-77
2024/03/29 09:32:23;;;;;;;2.45;2.25;;;9.10;99.90;;;;;;12619489;28;20195;-77
2024/03/29 09:38:26;;;;;;;2.72;2.53;;;9.30;99.90;;;;;;12605979;28;20052;-77
2024/03/29 09:44:31;;;;;;;4.28;3.25;;;9.40;99.90;;;;;;12599801;28;20063;-78
2024/03/29 09:50:35;;;;;;;3.90;3.60;;;9.40;99.90;;;;;;12615439;28;20036;-78
2024/03/29 09:56:37;;;;;;;3.75;3.45;;;9.60;99.90;;;;;;12615763;28;20048;-78
2024/03/29 10:02:40;;;;;;;4.35;3.97;;;9.70;99.90;;;;;;12635537;28;20059;-79
2024/03/29 10:08:41;;;;;;;5.07;4.68;;;9.90;99.90;;;;;;12627753;28;20052;-80
2024/03/29 10:14:49;;;;;;;4.47;4.18;;;10.30;99.90;;;;;;12615430;28;20052;-79
2024/03/29 10:21:04;;;;;;;4.53;4.13;;;10.20;99.90;;;;;;12604520;28;20098;-78
2024/03/29 10:27:05;;;;;;;3.33;3.00;;;10.10;99.90;;;;;;12642846;28;20458;-79
2024/03/29 10:33:06;;;;;;;3.25;2.97;;;10.20;99.90;;;;;;12605005;28;20049;-79
2024/03/29 10:39:11;;;;;;;4.47;4.07;;;10.60;99.90;;;;;;12593693;28;20127;-79
2024/03/29 10:45:14;;;;;;;3.70;3.40;;;10.90;99.90;;;;;;12627728;28;20429;-79
2024/03/29 10:51:15;;;;;;;4.70;4.40;;;11.00;99.90;;;;;;12617887;28;20481;-79
2024/03/29 10:57:27;;;;;;;4.82;4.53;;;11.10;99.90;;;;;;12619994;28;20093;-79
2024/03/29 11:03:53;;;;;;;4.53;4.22;;;11.00;99.90;;;;;;12605458;28;20048;-80
2024/03/29 11:10:02;;;;;;;4.63;4.30;;;11.20;99.90;;;;;;12631901;28;20040;-79
2024/03/29 11:16:04;;;;;;;6.85;6.05;;;11.30;99.90;;;;;;12609087;28;20044;-80
2024/03/29 11:22:06;;;;;;;4.47;4.18;;;11.40;99.90;;;;;;12608442;28;20064;-79
2024/03/29 11:28:08;;;;;;;4.85;4.55;;;11.30;99.90;;;;;;12610431;28;20048;-79
2024/03/29 11:34:09;;;;;;;3.30;3.10;;;11.30;99.90;;;;;;12539875;28;20057;-79
2024/03/29 11:40:11;;;;;;;3.10;2.80;;;11.20;99.90;;;;;;12523513;28;20050;-79
2024/03/29 11:46:13;;;;;;;4.25;3.33;;;11.30;99.90;;;;;;12540606;28;20052;-80
2024/03/29 11:52:18;;;;;;;4.45;4.05;;;11.50;99.90;;;;;;12548340;28;20060;-80
2024/03/29 11:58:22;;;;;;;;;;;12.10;99.90;;;;;;12537043;28;20068;-80
2024/03/29 12:04:23;;;;;;;5.50;5.10;;;12.20;99.90;;;;;;12530517;28;20380;-82
2024/03/29 12:10:28;;;;;;;4.45;4.15;;;12.20;99.90;;;;;;12526499;28;20095;-80
2024/03/29 12:16:29;;;;;;;3.67;3.38;;;12.30;99.90;;;;;;12530672;28;20045;-79
2024/03/29 12:22:30;;;;;;;3.53;3.22;;;12.20;99.90;;;;;;12552458;28;20045;-81
2024/03/29 12:28:34;;;;;;;2.70;2.50;;;12.10;99.90;;;;;;12555368;28;20041;-78
2024/03/29 12:34:34;;;;;;;3.30;3.00;;;12.20;99.90;;;;;;12537479;28;20064;-78
2024/03/29 12:40:37;;;;;;;2.90;2.70;;;12.30;99.90;;;;;;12533730;28;20103;-79
2024/03/29 12:46:38;;;;;;;3.35;2.95;;;12.70;99.90;;;;;;12516083;28;20052;-79
2024/03/29 12:52:42;;;;;;;3.38;3.17;;;12.80;99.90;;;;;;12530781;28;20083;-79
2024/03/29 12:58:43;;;;;;;;;;;12.80;99.90;;;;;;12537915;28;20044;-77
2024/03/29 13:04:45;;;;;;;2.97;2.78;;;12.90;99.90;;;;;;12523217;28;19920;-81
2024/03/29 13:10:46;;;;;;;2.90;2.70;;;13.00;99.90;;;;;;12527513;28;20072;-81
2024/03/29 13:16:47;;;;;;;4.45;3.20;;;13.00;99.90;;;;;;12520889;28;20087;-80
2024/03/29 13:22:50;;;;;;;3.35;3.05;;;13.20;99.90;;;;;;12523086;28;20068;-84
2024/03/29 13:28:51;;;;;;;3.10;2.85;;;13.10;99.90;;;;;;12513865;28;20052;-83
2024/03/29 13:34:52;;;;;;;3.20;2.90;;;13.10;99.90;;;;;;12602092;28;20055;-83
2024/03/29 13:40:53;;;;;;;4.13;3.72;;;13.40;99.90;;;;;;12596743;28;20055;-83
2024/03/29 13:46:54;;;;;;;3.72;3.42;;;13.70;99.90;;;;;;12589983;28;20071;-82
2024/03/29 13:52:55;;;;;;;3.90;3.50;;;13.60;99.90;;;;;;12598689;28;20297;-84
2024/03/29 13:58:56;;;;;;;3.80;3.50;;;13.80;99.90;;;;;;12594335;28;20056;-83
2024/03/29 14:04:58;;;;;;;4.50;4.10;;;14.10;99.90;;;;;;12601650;28;20475;-81
2024/03/29 14:11:00;;;;;;;4.30;4.00;;;14.00;99.90;;;;;;12591441;28;20028;-80
2024/03/29 14:17:06;;;;;;;3.85;3.60;;;13.80;99.90;;;;;;12658653;28;20084;-80
2024/03/29 14:23:10;;;;;;;3.80;3.33;;;13.50;99.90;;;;;;12592205;23;20409;-36
2024/03/29 14:29:14;;;;;;;4.10;3.20;;;13.30;99.90;;;;;;12551456;28;20048;-36
2024/03/29 14:35:16;;;;;;;4.03;2.92;;;13.10;99.90;;;;;;12522594;28;20095;-36
2024/03/29 14:41:18;;;;;;;5.60;3.05;;;13.10;99.90;;;;;;12530243;28;20046;-36
2024/03/29 14:47:19;;;;;;;3.05;2.20;;;13.10;99.90;;;;;;12501767;28;20053;-36
2024/03/29 14:53:20;;;;;;;2.72;2.53;;;13.40;99.90;;;;;;12514514;28;20049;-36
2024/03/29 14:59:21;;;;;;;2.80;2.60;;;13.70;99.90;;;;;;12510719;28;20075;-36
2024/03/29 15:05:23;;;;;;;2.95;2.75;;;14.10;99.90;;;;;;12515580;28;20087;-36
2024/03/29 15:11:25;;;;;;;3.60;3.30;;;13.90;99.90;;;;;;12522645;28;20059;-36
2024/03/29 15:17:26;;;;;;;3.80;2.90;;;13.80;99.90;;;;;;12511002;28;20048;-36
2024/03/29 15:23:28;;;;;;;2.60;2.40;;;13.80;99.90;;;;;;12516672;28;20056;-36
2024/03/29 15:29:29;;;;;;;2.60;2.40;;;13.60;99.90;;;;;;12509081;28;20049;-36
2024/03/29 15:35:30;;;;;;;3.97;2.65;;;13.60;99.90;;;;;;12515029;28;20041;-36
2024/03/29 15:41:32;;;;;;;2.55;2.35;;;13.50;99.90;;;;;;12505523;28;20603;-36
2024/03/29 15:47:34;;;;;;;2.30;2.10;;;13.40;99.90;;;;;;12536181;28;20053;-36
2024/03/29 15:53:35;;;;;;;2.20;2.00;;;13.20;99.90;;;;;;12499173;28;20060;-36
2024/03/29 15:59:36;;;;;;;1.83;1.73;;;13.20;99.90;;;;;;12507089;28;20087;-36
2024/03/29 16:05:37;;;;;;;1.90;1.80;;;13.40;99.90;;;;;;12508775;28;20052;-36
2024/03/29 16:11:38;;;;;;;2.17;2.00;;;13.40;99.90;;;;;;12511810;28;20045;-36
2024/03/29 16:17:39;;;;;;;1.92;1.80;;;13.30;99.90;;;;;;12512765;28;20049;-37
2024/03/29 16:23:40;;;;;;;2.28;2.10;;;13.70;99.90;;;;;;12467260;28;20053;-36
2024/03/29 16:29:42;;;;;;;2.30;2.10;;;13.70;99.90;;;;;;12486380;28;20486;-36
2024/03/29 16:35:44;;;;;;;2.53;2.33;;;13.50;99.90;;;;;;12484002;28;20382;-36
2024/03/29 16:41:47;;;;;;;2.50;2.30;;;13.10;99.90;;;;;;12486428;28;20049;-36
2024/03/29 16:47:49;;;;;;;2.10;1.90;;;12.90;99.90;;;;;;12475128;28;20057;-36
2024/03/29 16:53:50;;;;;;;2.30;2.10;;;12.70;99.90;;;;;;12484010;28;20041;-37
2024/03/29 16:59:51;;;;;;;2.30;1.90;;;12.60;99.90;;;;;;12479782;28;20053;-36
2024/03/29 17:05:52;;;;;;;1.92;1.80;;;12.50;99.90;;;;;;12491014;28;20080;-36
2024/03/29 17:11:53;;;;;;;2.08;1.88;;;12.40;99.90;;;;;;12482315;28;20048;-36
2024/03/29 17:17:54;;;;;;;2.30;1.70;;;12.40;99.90;;;;;;12491336;28;20398;-36
2024/03/29 17:23:55;;;;;;;11.18;6.10;;;12.30;99.90;;;;;;12494790;28;20531;-36
2024/03/29 17:29:56;;;;;;;2.28;1.80;;;12.20;99.90;;;;;;12490512;28;20120;-36
2024/03/29 17:35:56;;;;;;;2.17;1.88;;;12.20;99.90;;;;;;12484619;28;20115;-36
2024/03/29 17:41:58;;;;;;;2.20;1.73;;;12.20;99.90;;;;;;12485632;28;20049;-36
2024/03/29 17:47:58;;;;;;;1.95;1.60;;;12.00;99.90;;;;;;12498947;28;20045;-36
2024/03/29 17:53:59;;;;;;;2.25;1.80;;;12.00;99.90;;;;;;12495952;28;20128;-37
2024/03/29 18:00:06;;;;;;;86.40;23.83;;;11.90;99.90;;;;;;12482534;28;20092;-36
2024/03/29 18:06:07;;;;;;;3.42;2.10;;;11.80;99.90;;;;;;12481975;28;20055;-36
2024/03/29 18:12:08;;;;;;;2.65;1.60;;;11.80;99.90;;;;;;12485917;28;20091;-36
2024/03/29 18:18:09;;;;;;;1.63;1.40;;;11.70;99.90;;;;;;12469019;28;20665;-36
2024/03/29 18:24:10;;;;;;;2.00;1.65;;;11.80;99.90;;;;;;12491595;28;20053;-36
2024/03/29 18:30:12;;;;;;;2.00;1.70;;;11.70;99.90;;;;;;12475229;28;20694;-36
2024/03/29 18:36:13;;;;;;;2.67;1.90;;;11.70;99.90;;;;;;12476773;28;20763;-36
2024/03/29 18:42:14;;;;;;;1.83;1.70;;;11.60;99.90;;;;;;12470374;28;20057;-36
2024/03/29 18:48:15;;;;;;;3.08;2.00;;;11.50;99.90;;;;;;12481155;28;20132;-36
2024/03/29 18:54:15;;;;;;;2.20;1.80;;;11.60;99.90;;;;;;12473742;28;20132;-36
2024/03/29 19:00:16;;;;;;;2.47;1.50;;;11.50;99.90;;;;;;12478833;28;20045;-36
2024/03/29 19:06:21;;;;;;;2.30;1.75;;;11.40;99.90;;;;;;12480917;28;20069;-36
2024/03/29 19:12:22;;;;;;;2.00;1.80;;;11.30;99.90;;;;;;12485145;28;20064;-36
2024/03/29 19:18:23;;;;;;;2.58;1.90;;;11.30;99.90;;;;;;12492990;28;20056;-36
2024/03/29 19:24:24;;;;;;;2.10;1.70;;;11.20;99.90;;;;;;12476343;28;20414;-36
2024/03/29 19:30:25;;;;;;;2.80;1.80;;;11.10;99.90;;;;;;12480011;28;20053;-36
2024/03/29 19:36:26;;;;;;;2.13;1.70;;;11.10;99.90;;;;;;12484316;28;20523;-36
2024/03/29 19:42:28;;;;;;;2.97;1.60;;;11.00;99.90;;;;;;12490037;28;20624;-36
2024/03/29 19:48:29;;;;;;;3.28;1.70;;;11.00;99.90;;;;;;12482122;28;20045;-36
2024/03/29 19:54:30;;;;;;;1.73;1.60;;;11.00;99.90;;;;;;12503547;23;20505;-77
2024/03/29 20:00:31;;;;;;;3.42;1.90;;;11.10;99.90;;;;;;12497584;28;20132;-80
2024/03/29 20:06:33;;;;;;;3.15;2.50;;;11.10;99.90;;;;;;12486652;28;20180;-77
2024/03/29 20:12:34;;;;;;;3.35;2.50;;;11.00;99.90;;;;;;12450833;28;20093;-77
2024/03/29 20:18:35;;;;;;;2.88;2.13;;;11.00;99.90;;;;;;12419353;28;20054;-80
2024/03/29 20:24:37;;;;;;;2.47;1.90;;;11.00;99.90;;;;;;12435929;28;20417;-81
2024/03/29 20:30:38;;;;;;;2.00;1.60;;;11.00;99.90;;;;;;12436923;28;20084;-77
2024/03/29 20:36:39;;;;;;;2.25;1.70;;;11.00;99.90;;;;;;12427065;28;20054;-77
2024/03/29 20:42:41;;;;;;;4.00;1.95;;;10.90;99.90;;;;;;12440483;28;20057;-78
2024/03/29 20:48:42;;;;;;;2.28;1.65;;;10.90;99.90;;;;;;12448181;28;20495;-78
2024/03/29 20:54:43;;;;;;;2.67;1.60;;;10.90;99.90;;;;;;12441949;28;20045;-78
2024/03/29 21:00:44;;;;;;;2.13;1.80;;;10.90;99.90;;;;;;12457308;28;20057;-76
2024/03/29 21:06:45;;;;;;;2.28;1.85;;;10.90;99.90;;;;;;12462937;28;20128;-79
2024/03/29 21:12:46;;;;;;;2.80;1.75;;;10.90;99.90;;;;;;12450579;28;20085;-77
2024/03/29 21:18:47;;;;;;;1.88;1.67;;;10.90;99.90;;;;;;12443497;28;20060;-78
2024/03/29 21:24:48;;;;;;;3.58;1.95;;;10.90;99.90;;;;;;12456834;28;20057;-77
2024/03/29 21:30:52;;;;;;;3.83;1.80;;;10.80;99.90;;;;;;12432049;28;20105;-77
2024/03/29 21:36:53;;;;;;;2.47;1.90;;;10.80;99.90;;;;;;12436193;28;20046;-77
2024/03/29 21:42:53;;;;;;;2.40;2.10;;;10.70;99.90;;;;;;12432319;28;20050;-79
2024/03/29 21:48:54;;;;;;;3.15;2.30;;;10.70;99.90;;;;;;12472075;28;20069;-79
2024/03/29 21:54:55;;;;;;;4.10;2.22;;;10.70;99.90;;;;;;12498186;28;20064;-78
2024/03/29 22:00:56;;;;;;;4.18;2.75;;;10.60;99.90;;;;;;12465989;28;20508;-77
2024/03/29 22:06:57;;;;;;;3.70;2.60;;;10.70;99.90;;;;;;12481658;28;20065;-78
2024/03/29 22:12:58;;;;;;;3.75;2.63;;;10.70;99.90;;;;;;12488947;28;20061;-77
2024/03/29 22:18:59;;;;;;;3.63;3.20;;;10.60;99.90;;;;;;12463553;28;20077;-78
2024/03/29 22:25:00;;;;;;;3.70;2.80;;;10.60;99.90;;;;;;12486054;28;20054;-80
2024/03/29 22:31:01;;;;;;;3.28;2.63;;;10.60;99.90;;;;;;12465445;28;20049;-79
2024/03/29 22:37:02;;;;;;;3.92;3.10;;;10.60;99.90;;;;;;12458009;28;20060;-83
2024/03/29 22:43:03;;;;;;;3.50;3.15;;;10.70;99.90;;;;;;12476261;28;20057;-77
2024/03/29 22:49:04;;;;;;;3.80;3.22;;;10.70;99.90;;;;;;12470586;28;20042;-77
2024/03/29 22:55:05;;;;;;;3.65;3.10;;;10.70;99.90;;;;;;12482244;28;20074;-77
2024/03/29 23:01:06;;;;;;;3.40;3.10;;;10.70;99.90;;;;;;12503325;28;20065;-78
2024/03/29 23:07:10;;;;;;;4.50;3.28;;;10.60;99.90;;;;;;12472070;28;20421;-77
2024/03/29 23:13:11;;;;;;;3.47;2.83;;;10.60;99.90;;;;;;12485668;28;20045;-80
2024/03/29 23:19:12;;;;;;;4.50;3.03;;;10.70;99.90;;;;;;12484906;28;20076;-78
2024/03/29 23:25:13;;;;;;;6.05;3.50;;;10.70;99.90;;;;;;12471545;28;20054;-77
2024/03/29 23:31:14;;;;;;;3.72;3.03;;;10.60;99.90;;;;;;12477082;28;20081;-81
2024/03/29 23:37:15;;;;;;;4.45;3.67;;;10.60;99.90;;;;;;12457259;28;20053;-80
2024/03/29 23:43:16;;;;;;;5.10;3.70;;;10.50;99.90;;;;;;12475947;28;20053;-80
2024/03/29 23:49:18;;;;;;;3.78;3.35;;;10.40;99.90;;;;;;12448756;28;20057;-80
2024/03/29 23:55:19;;;;;;;4.10;3.70;;;10.30;99.90;;;;;;12468317;28;20076;-77
